<?xml version="1.0" encoding="UTF-8" standalone="no" ?>
<gpx xmlns="http://www.topografix.com/GPX/1/1" xmlns:xsi="http://www.w3.org/2001/XMLSchema-instance" xsi:schemaLocation="http://www.topografix.com/GPX/1/1 http://www.topografix.com/GPX/1/1/gpx.xsd" version="1.1" creator="VisuGPX - https://www.visugpx.com">
  <metadata>
    <name>pic de bastan et tour des bastans depuis refuge, Hautes Pyrénées, NATAKA</name>
  </metadata>
  <trk>
    <name><![CDATA[13884340-pic de bastan et tour des bastans depuis refuge]]></name>
    <trkseg>
      <trkpt lat="42.85344" lon="0.20954">
        <ele>2241</ele>
        <time>2021-10-29T14:37:06Z</time>
      </trkpt>
      <trkpt lat="42.85355" lon="0.20953">
        <ele>2242</ele>
        <time>2021-10-29T14:37:15Z</time>
      </trkpt>
      <trkpt lat="42.85347" lon="0.20969">
        <ele>2244</ele>
        <time>2021-10-29T14:37:26Z</time>
      </trkpt>
      <trkpt lat="42.85353" lon="0.20967">
        <ele>2245</ele>
        <time>2021-10-29T14:37:31Z</time>
      </trkpt>
      <trkpt lat="42.8536" lon="0.20969">
        <ele>2246</ele>
        <time>2021-10-29T14:37:37Z</time>
      </trkpt>
      <trkpt lat="42.85367" lon="0.20968">
        <ele>2246</ele>
        <time>2021-10-29T14:37:43Z</time>
      </trkpt>
      <trkpt lat="42.85388" lon="0.20975">
        <ele>2249</ele>
        <time>2021-10-29T14:38:00Z</time>
      </trkpt>
      <trkpt lat="42.8541" lon="0.20972">
        <ele>2251</ele>
        <time>2021-10-29T14:38:18Z</time>
      </trkpt>
      <trkpt lat="42.85423" lon="0.20949">
        <ele>2248</ele>
        <time>2021-10-29T14:38:35Z</time>
      </trkpt>
      <trkpt lat="42.85442" lon="0.2094">
        <ele>2249</ele>
        <time>2021-10-29T14:38:51Z</time>
      </trkpt>
      <trkpt lat="42.85449" lon="0.20926">
        <ele>2249</ele>
        <time>2021-10-29T14:39:01Z</time>
      </trkpt>
      <trkpt lat="42.85453" lon="0.20911">
        <ele>2248</ele>
        <time>2021-10-29T14:39:10Z</time>
      </trkpt>
      <trkpt lat="42.85452" lon="0.20894">
        <ele>2249</ele>
        <time>2021-10-29T14:39:20Z</time>
      </trkpt>
      <trkpt lat="42.85453" lon="0.20887">
        <ele>2249</ele>
        <time>2021-10-29T14:39:24Z</time>
      </trkpt>
      <trkpt lat="42.85468" lon="0.20876">
        <ele>2254</ele>
        <time>2021-10-29T14:39:38Z</time>
      </trkpt>
      <trkpt lat="42.85503" lon="0.20858">
        <ele>2265</ele>
        <time>2021-10-29T14:40:08Z</time>
      </trkpt>
      <trkpt lat="42.85516" lon="0.20857">
        <ele>2266</ele>
        <time>2021-10-29T14:40:18Z</time>
      </trkpt>
      <trkpt lat="42.85521" lon="0.20847">
        <ele>2268</ele>
        <time>2021-10-29T14:40:25Z</time>
      </trkpt>
      <trkpt lat="42.85532" lon="0.2084">
        <ele>2270</ele>
        <time>2021-10-29T14:40:35Z</time>
      </trkpt>
      <trkpt lat="42.85535" lon="0.2083">
        <ele>2271</ele>
        <time>2021-10-29T14:40:41Z</time>
      </trkpt>
      <trkpt lat="42.85548" lon="0.20824">
        <ele>2273</ele>
        <time>2021-10-29T14:40:52Z</time>
      </trkpt>
      <trkpt lat="42.85564" lon="0.20805">
        <ele>2277</ele>
        <time>2021-10-29T14:41:09Z</time>
      </trkpt>
      <trkpt lat="42.85571" lon="0.20786">
        <ele>2280</ele>
        <time>2021-10-29T14:41:22Z</time>
      </trkpt>
      <trkpt lat="42.85596" lon="0.20756">
        <ele>2286</ele>
        <time>2021-10-29T14:41:48Z</time>
      </trkpt>
      <trkpt lat="42.85608" lon="0.20744">
        <ele>2288</ele>
        <time>2021-10-29T14:42:00Z</time>
      </trkpt>
      <trkpt lat="42.8563" lon="0.20738">
        <ele>2290</ele>
        <time>2021-10-29T14:42:18Z</time>
      </trkpt>
      <trkpt lat="42.85657" lon="0.20718">
        <ele>2294</ele>
        <time>2021-10-29T14:42:43Z</time>
      </trkpt>
      <trkpt lat="42.85669" lon="0.20712">
        <ele>2296</ele>
        <time>2021-10-29T14:42:53Z</time>
      </trkpt>
      <trkpt lat="42.85673" lon="0.20712">
        <ele>2297</ele>
        <time>2021-10-29T14:42:56Z</time>
      </trkpt>
      <trkpt lat="42.85682" lon="0.20722">
        <ele>2296</ele>
        <time>2021-10-29T14:43:06Z</time>
      </trkpt>
      <trkpt lat="42.85688" lon="0.20705">
        <ele>2300</ele>
        <time>2021-10-29T14:43:17Z</time>
      </trkpt>
      <trkpt lat="42.85697" lon="0.20689">
        <ele>2303</ele>
        <time>2021-10-29T14:43:29Z</time>
      </trkpt>
      <trkpt lat="42.85699" lon="0.20679">
        <ele>2305</ele>
        <time>2021-10-29T14:43:35Z</time>
      </trkpt>
      <trkpt lat="42.85703" lon="0.20672">
        <ele>2306</ele>
        <time>2021-10-29T14:43:40Z</time>
      </trkpt>
      <trkpt lat="42.85704" lon="0.20642">
        <ele>2309</ele>
        <time>2021-10-29T14:43:58Z</time>
      </trkpt>
      <trkpt lat="42.85707" lon="0.20634">
        <ele>2310</ele>
        <time>2021-10-29T14:44:03Z</time>
      </trkpt>
      <trkpt lat="42.85709" lon="0.20622">
        <ele>2312</ele>
        <time>2021-10-29T14:44:10Z</time>
      </trkpt>
      <trkpt lat="42.85706" lon="0.20592">
        <ele>2314</ele>
        <time>2021-10-29T14:44:28Z</time>
      </trkpt>
      <trkpt lat="42.8571" lon="0.20549">
        <ele>2317</ele>
        <time>2021-10-29T14:44:53Z</time>
      </trkpt>
      <trkpt lat="42.85714" lon="0.2054">
        <ele>2317</ele>
        <time>2021-10-29T14:44:59Z</time>
      </trkpt>
      <trkpt lat="42.85718" lon="0.20522">
        <ele>2318</ele>
        <time>2021-10-29T14:45:10Z</time>
      </trkpt>
      <trkpt lat="42.85731" lon="0.20501">
        <ele>2319</ele>
        <time>2021-10-29T14:45:27Z</time>
      </trkpt>
      <trkpt lat="42.85732" lon="0.20475">
        <ele>2319</ele>
        <time>2021-10-29T14:45:42Z</time>
      </trkpt>
      <trkpt lat="42.85728" lon="0.20469">
        <ele>2320</ele>
        <time>2021-10-29T14:45:47Z</time>
      </trkpt>
      <trkpt lat="42.85732" lon="0.20452">
        <ele>2320</ele>
        <time>2021-10-29T14:45:57Z</time>
      </trkpt>
      <trkpt lat="42.85736" lon="0.20442">
        <ele>2319</ele>
        <time>2021-10-29T14:46:04Z</time>
      </trkpt>
      <trkpt lat="42.85755" lon="0.20397">
        <ele>2314</ele>
        <time>2021-10-29T14:46:34Z</time>
      </trkpt>
      <trkpt lat="42.8576" lon="0.2039">
        <ele>2313</ele>
        <time>2021-10-29T14:46:40Z</time>
      </trkpt>
      <trkpt lat="42.85766" lon="0.20386">
        <ele>2313</ele>
        <time>2021-10-29T14:46:45Z</time>
      </trkpt>
      <trkpt lat="42.85771" lon="0.20381">
        <ele>2312</ele>
        <time>2021-10-29T14:46:50Z</time>
      </trkpt>
      <trkpt lat="42.85798" lon="0.20341">
        <ele>2308</ele>
        <time>2021-10-29T14:47:22Z</time>
      </trkpt>
      <trkpt lat="42.85801" lon="0.20339">
        <ele>2308</ele>
        <time>2021-10-29T14:47:25Z</time>
      </trkpt>
      <trkpt lat="42.85803" lon="0.20318">
        <ele>2302</ele>
        <time>2021-10-29T14:47:37Z</time>
      </trkpt>
      <trkpt lat="42.858" lon="0.20309">
        <ele>2298</ele>
        <time>2021-10-29T14:47:43Z</time>
      </trkpt>
      <trkpt lat="42.85802" lon="0.20303">
        <ele>2296</ele>
        <time>2021-10-29T14:47:47Z</time>
      </trkpt>
      <trkpt lat="42.85816" lon="0.20283">
        <ele>2292</ele>
        <time>2021-10-29T14:48:03Z</time>
      </trkpt>
      <trkpt lat="42.8582" lon="0.20275">
        <ele>2290</ele>
        <time>2021-10-29T14:48:09Z</time>
      </trkpt>
      <trkpt lat="42.8582" lon="0.20271">
        <ele>2289</ele>
        <time>2021-10-29T14:48:11Z</time>
      </trkpt>
      <trkpt lat="42.8581" lon="0.20266">
        <ele>2285</ele>
        <time>2021-10-29T14:48:20Z</time>
      </trkpt>
      <trkpt lat="42.8581" lon="0.20259">
        <ele>2283</ele>
        <time>2021-10-29T14:48:24Z</time>
      </trkpt>
      <trkpt lat="42.85808" lon="0.20244">
        <ele>2276</ele>
        <time>2021-10-29T14:48:33Z</time>
      </trkpt>
      <trkpt lat="42.8581" lon="0.20239">
        <ele>2274</ele>
        <time>2021-10-29T14:48:36Z</time>
      </trkpt>
      <trkpt lat="42.85808" lon="0.20232">
        <ele>2270</ele>
        <time>2021-10-29T14:48:41Z</time>
      </trkpt>
      <trkpt lat="42.85792" lon="0.20225">
        <ele>2263</ele>
        <time>2021-10-29T14:48:54Z</time>
      </trkpt>
      <trkpt lat="42.85782" lon="0.20216">
        <ele>2257</ele>
        <time>2021-10-29T14:49:04Z</time>
      </trkpt>
      <trkpt lat="42.85778" lon="0.20209">
        <ele>2253</ele>
        <time>2021-10-29T14:49:09Z</time>
      </trkpt>
      <trkpt lat="42.85772" lon="0.20203">
        <ele>2249</ele>
        <time>2021-10-29T14:49:15Z</time>
      </trkpt>
      <trkpt lat="42.85761" lon="0.20204">
        <ele>2248</ele>
        <time>2021-10-29T14:49:24Z</time>
      </trkpt>
      <trkpt lat="42.85753" lon="0.20193">
        <ele>2242</ele>
        <time>2021-10-29T14:49:33Z</time>
      </trkpt>
      <trkpt lat="42.8575" lon="0.20186">
        <ele>2238</ele>
        <time>2021-10-29T14:49:37Z</time>
      </trkpt>
      <trkpt lat="42.85751" lon="0.20181">
        <ele>2236</ele>
        <time>2021-10-29T14:49:41Z</time>
      </trkpt>
      <trkpt lat="42.85749" lon="0.20171">
        <ele>2231</ele>
        <time>2021-10-29T14:49:47Z</time>
      </trkpt>
      <trkpt lat="42.8574" lon="0.20145">
        <ele>2226</ele>
        <time>2021-10-29T14:50:03Z</time>
      </trkpt>
      <trkpt lat="42.8573" lon="0.20099">
        <ele>2218</ele>
        <time>2021-10-29T14:50:32Z</time>
      </trkpt>
      <trkpt lat="42.8573" lon="0.20087">
        <ele>2215</ele>
        <time>2021-10-29T14:50:39Z</time>
      </trkpt>
      <trkpt lat="42.85739" lon="0.20043">
        <ele>2209</ele>
        <time>2021-10-29T14:51:05Z</time>
      </trkpt>
      <trkpt lat="42.85745" lon="0.20022">
        <ele>2207</ele>
        <time>2021-10-29T14:51:19Z</time>
      </trkpt>
      <trkpt lat="42.8575" lon="0.20014">
        <ele>2206</ele>
        <time>2021-10-29T14:51:25Z</time>
      </trkpt>
      <trkpt lat="42.85767" lon="0.19995">
        <ele>2207</ele>
        <time>2021-10-29T14:51:42Z</time>
      </trkpt>
      <trkpt lat="42.85771" lon="0.19989">
        <ele>2207</ele>
        <time>2021-10-29T14:51:47Z</time>
      </trkpt>
      <trkpt lat="42.85773" lon="0.19979">
        <ele>2206</ele>
        <time>2021-10-29T14:51:53Z</time>
      </trkpt>
      <trkpt lat="42.85829" lon="0.19937">
        <ele>2214</ele>
        <time>2021-10-29T14:52:45Z</time>
      </trkpt>
      <trkpt lat="42.85841" lon="0.19922">
        <ele>2218</ele>
        <time>2021-10-29T14:52:58Z</time>
      </trkpt>
      <trkpt lat="42.85847" lon="0.1992">
        <ele>2219</ele>
        <time>2021-10-29T14:53:02Z</time>
      </trkpt>
      <trkpt lat="42.85851" lon="0.19916">
        <ele>2221</ele>
        <time>2021-10-29T14:53:06Z</time>
      </trkpt>
      <trkpt lat="42.85861" lon="0.19916">
        <ele>2224</ele>
        <time>2021-10-29T14:53:14Z</time>
      </trkpt>
      <trkpt lat="42.85892" lon="0.1988">
        <ele>2231</ele>
        <time>2021-10-29T14:53:47Z</time>
      </trkpt>
      <trkpt lat="42.85904" lon="0.19873">
        <ele>2235</ele>
        <time>2021-10-29T14:53:58Z</time>
      </trkpt>
      <trkpt lat="42.85912" lon="0.19863">
        <ele>2238</ele>
        <time>2021-10-29T14:54:06Z</time>
      </trkpt>
      <trkpt lat="42.85924" lon="0.19851">
        <ele>2242</ele>
        <time>2021-10-29T14:54:18Z</time>
      </trkpt>
      <trkpt lat="42.85933" lon="0.1985">
        <ele>2244</ele>
        <time>2021-10-29T14:54:25Z</time>
      </trkpt>
      <trkpt lat="42.85962" lon="0.19836">
        <ele>2250</ele>
        <time>2021-10-29T14:54:50Z</time>
      </trkpt>
      <trkpt lat="42.85967" lon="0.19836">
        <ele>2251</ele>
        <time>2021-10-29T14:54:54Z</time>
      </trkpt>
      <trkpt lat="42.85973" lon="0.19833">
        <ele>2252</ele>
        <time>2021-10-29T14:54:59Z</time>
      </trkpt>
      <trkpt lat="42.85985" lon="0.19825">
        <ele>2255</ele>
        <time>2021-10-29T14:55:10Z</time>
      </trkpt>
      <trkpt lat="42.85999" lon="0.19812">
        <ele>2257</ele>
        <time>2021-10-29T14:55:23Z</time>
      </trkpt>
      <trkpt lat="42.86005" lon="0.19799">
        <ele>2258</ele>
        <time>2021-10-29T14:55:32Z</time>
      </trkpt>
      <trkpt lat="42.86011" lon="0.19769">
        <ele>2257</ele>
        <time>2021-10-29T14:55:51Z</time>
      </trkpt>
      <trkpt lat="42.86015" lon="0.19739">
        <ele>2256</ele>
        <time>2021-10-29T14:56:09Z</time>
      </trkpt>
      <trkpt lat="42.86019" lon="0.19681">
        <ele>2254</ele>
        <time>2021-10-29T14:56:43Z</time>
      </trkpt>
      <trkpt lat="42.86036" lon="0.19639">
        <ele>2255</ele>
        <time>2021-10-29T14:57:11Z</time>
      </trkpt>
      <trkpt lat="42.86064" lon="0.19605">
        <ele>2258</ele>
        <time>2021-10-29T14:57:41Z</time>
      </trkpt>
      <trkpt lat="42.86071" lon="0.19593">
        <ele>2259</ele>
        <time>2021-10-29T14:57:50Z</time>
      </trkpt>
      <trkpt lat="42.86077" lon="0.19576">
        <ele>2259</ele>
        <time>2021-10-29T14:58:01Z</time>
      </trkpt>
      <trkpt lat="42.86092" lon="0.19552">
        <ele>2260</ele>
        <time>2021-10-29T14:58:19Z</time>
      </trkpt>
      <trkpt lat="42.86104" lon="0.19524">
        <ele>2260</ele>
        <time>2021-10-29T14:58:38Z</time>
      </trkpt>
      <trkpt lat="42.86107" lon="0.19503">
        <ele>2259</ele>
        <time>2021-10-29T14:58:51Z</time>
      </trkpt>
      <trkpt lat="42.86111" lon="0.19492">
        <ele>2258</ele>
        <time>2021-10-29T14:58:58Z</time>
      </trkpt>
      <trkpt lat="42.86118" lon="0.1948">
        <ele>2258</ele>
        <time>2021-10-29T14:59:07Z</time>
      </trkpt>
      <trkpt lat="42.8613" lon="0.19474">
        <ele>2259</ele>
        <time>2021-10-29T14:59:17Z</time>
      </trkpt>
      <trkpt lat="42.86138" lon="0.19465">
        <ele>2260</ele>
        <time>2021-10-29T14:59:26Z</time>
      </trkpt>
      <trkpt lat="42.8615" lon="0.19453">
        <ele>2262</ele>
        <time>2021-10-29T14:59:38Z</time>
      </trkpt>
      <trkpt lat="42.86155" lon="0.19441">
        <ele>2263</ele>
        <time>2021-10-29T14:59:46Z</time>
      </trkpt>
      <trkpt lat="42.86161" lon="0.19435">
        <ele>2264</ele>
        <time>2021-10-29T14:59:52Z</time>
      </trkpt>
      <trkpt lat="42.86187" lon="0.1942">
        <ele>2269</ele>
        <time>2021-10-29T15:00:14Z</time>
      </trkpt>
      <trkpt lat="42.862" lon="0.19397">
        <ele>2266</ele>
        <time>2021-10-29T15:00:31Z</time>
      </trkpt>
      <trkpt lat="42.86214" lon="0.19381">
        <ele>2266</ele>
        <time>2021-10-29T15:00:46Z</time>
      </trkpt>
      <trkpt lat="42.86231" lon="0.19373">
        <ele>2267</ele>
        <time>2021-10-29T15:01:00Z</time>
      </trkpt>
      <trkpt lat="42.86232" lon="0.1937">
        <ele>2267</ele>
        <time>2021-10-29T15:01:02Z</time>
      </trkpt>
      <trkpt lat="42.8623" lon="0.19367">
        <ele>2266</ele>
        <time>2021-10-29T15:01:05Z</time>
      </trkpt>
      <trkpt lat="42.86236" lon="0.19359">
        <ele>2266</ele>
        <time>2021-10-29T15:01:11Z</time>
      </trkpt>
      <trkpt lat="42.86237" lon="0.19353">
        <ele>2265</ele>
        <time>2021-10-29T15:01:15Z</time>
      </trkpt>
      <trkpt lat="42.86248" lon="0.19349">
        <ele>2267</ele>
        <time>2021-10-29T15:01:24Z</time>
      </trkpt>
      <trkpt lat="42.86251" lon="0.19343">
        <ele>2266</ele>
        <time>2021-10-29T15:01:28Z</time>
      </trkpt>
      <trkpt lat="42.86256" lon="0.19341">
        <ele>2266</ele>
        <time>2021-10-29T15:01:33Z</time>
      </trkpt>
      <trkpt lat="42.86258" lon="0.19335">
        <ele>2265</ele>
        <time>2021-10-29T15:01:36Z</time>
      </trkpt>
      <trkpt lat="42.86268" lon="0.19327">
        <ele>2263</ele>
        <time>2021-10-29T15:01:46Z</time>
      </trkpt>
      <trkpt lat="42.86285" lon="0.19326">
        <ele>2263</ele>
        <time>2021-10-29T15:01:59Z</time>
      </trkpt>
      <trkpt lat="42.86311" lon="0.19309">
        <ele>2261</ele>
        <time>2021-10-29T15:02:22Z</time>
      </trkpt>
      <trkpt lat="42.86322" lon="0.19297">
        <ele>2261</ele>
        <time>2021-10-29T15:02:34Z</time>
      </trkpt>
      <trkpt lat="42.86327" lon="0.19297">
        <ele>2262</ele>
        <time>2021-10-29T15:02:38Z</time>
      </trkpt>
      <trkpt lat="42.86331" lon="0.1929">
        <ele>2261</ele>
        <time>2021-10-29T15:02:43Z</time>
      </trkpt>
      <trkpt lat="42.86337" lon="0.19288">
        <ele>2262</ele>
        <time>2021-10-29T15:02:48Z</time>
      </trkpt>
      <trkpt lat="42.86346" lon="0.1928">
        <ele>2261</ele>
        <time>2021-10-29T15:02:57Z</time>
      </trkpt>
      <trkpt lat="42.86349" lon="0.19273">
        <ele>2260</ele>
        <time>2021-10-29T15:03:01Z</time>
      </trkpt>
      <trkpt lat="42.86358" lon="0.19271">
        <ele>2260</ele>
        <time>2021-10-29T15:03:09Z</time>
      </trkpt>
      <trkpt lat="42.86363" lon="0.19267">
        <ele>2259</ele>
        <time>2021-10-29T15:03:13Z</time>
      </trkpt>
      <trkpt lat="42.86371" lon="0.19258">
        <ele>2258</ele>
        <time>2021-10-29T15:03:22Z</time>
      </trkpt>
      <trkpt lat="42.86372" lon="0.19252">
        <ele>2257</ele>
        <time>2021-10-29T15:03:25Z</time>
      </trkpt>
      <trkpt lat="42.86379" lon="0.1925">
        <ele>2257</ele>
        <time>2021-10-29T15:03:31Z</time>
      </trkpt>
      <trkpt lat="42.86386" lon="0.19241">
        <ele>2255</ele>
        <time>2021-10-29T15:03:39Z</time>
      </trkpt>
      <trkpt lat="42.86387" lon="0.19234">
        <ele>2254</ele>
        <time>2021-10-29T15:03:43Z</time>
      </trkpt>
      <trkpt lat="42.8639" lon="0.19228">
        <ele>2253</ele>
        <time>2021-10-29T15:03:47Z</time>
      </trkpt>
      <trkpt lat="42.86396" lon="0.19224">
        <ele>2253</ele>
        <time>2021-10-29T15:03:52Z</time>
      </trkpt>
      <trkpt lat="42.86405" lon="0.19223">
        <ele>2254</ele>
        <time>2021-10-29T15:04:00Z</time>
      </trkpt>
      <trkpt lat="42.86412" lon="0.19215">
        <ele>2253</ele>
        <time>2021-10-29T15:04:07Z</time>
      </trkpt>
      <trkpt lat="42.86421" lon="0.19212">
        <ele>2254</ele>
        <time>2021-10-29T15:04:14Z</time>
      </trkpt>
      <trkpt lat="42.86435" lon="0.19194">
        <ele>2254</ele>
        <time>2021-10-29T15:04:30Z</time>
      </trkpt>
      <trkpt lat="42.86443" lon="0.19188">
        <ele>2255</ele>
        <time>2021-10-29T15:04:37Z</time>
      </trkpt>
      <trkpt lat="42.86447" lon="0.19183">
        <ele>2255</ele>
        <time>2021-10-29T15:04:41Z</time>
      </trkpt>
      <trkpt lat="42.86457" lon="0.19179">
        <ele>2255</ele>
        <time>2021-10-29T15:04:50Z</time>
      </trkpt>
      <trkpt lat="42.86461" lon="0.19165">
        <ele>2253</ele>
        <time>2021-10-29T15:04:59Z</time>
      </trkpt>
      <trkpt lat="42.86476" lon="0.19165">
        <ele>2254</ele>
        <time>2021-10-29T15:05:11Z</time>
      </trkpt>
      <trkpt lat="42.86481" lon="0.19158">
        <ele>2252</ele>
        <time>2021-10-29T15:05:16Z</time>
      </trkpt>
      <trkpt lat="42.86493" lon="0.19154">
        <ele>2252</ele>
        <time>2021-10-29T15:05:26Z</time>
      </trkpt>
      <trkpt lat="42.86504" lon="0.19134">
        <ele>2246</ele>
        <time>2021-10-29T15:05:41Z</time>
      </trkpt>
      <trkpt lat="42.86512" lon="0.19132">
        <ele>2247</ele>
        <time>2021-10-29T15:05:47Z</time>
      </trkpt>
      <trkpt lat="42.8653" lon="0.1912">
        <ele>2245</ele>
        <time>2021-10-29T15:06:03Z</time>
      </trkpt>
      <trkpt lat="42.86537" lon="0.19111">
        <ele>2242</ele>
        <time>2021-10-29T15:06:11Z</time>
      </trkpt>
      <trkpt lat="42.86549" lon="0.19104">
        <ele>2241</ele>
        <time>2021-10-29T15:06:22Z</time>
      </trkpt>
      <trkpt lat="42.86546" lon="0.19097">
        <ele>2239</ele>
        <time>2021-10-29T15:06:26Z</time>
      </trkpt>
      <trkpt lat="42.86564" lon="0.19089">
        <ele>2238</ele>
        <time>2021-10-29T15:06:41Z</time>
      </trkpt>
      <trkpt lat="42.86576" lon="0.19076">
        <ele>2235</ele>
        <time>2021-10-29T15:06:54Z</time>
      </trkpt>
      <trkpt lat="42.86592" lon="0.19066">
        <ele>2233</ele>
        <time>2021-10-29T15:07:08Z</time>
      </trkpt>
      <trkpt lat="42.86612" lon="0.19058">
        <ele>2231</ele>
        <time>2021-10-29T15:07:25Z</time>
      </trkpt>
      <trkpt lat="42.86626" lon="0.19042">
        <ele>2228</ele>
        <time>2021-10-29T15:07:39Z</time>
      </trkpt>
      <trkpt lat="42.86638" lon="0.19016">
        <ele>2223</ele>
        <time>2021-10-29T15:07:57Z</time>
      </trkpt>
      <trkpt lat="42.86643" lon="0.18996">
        <ele>2219</ele>
        <time>2021-10-29T15:08:10Z</time>
      </trkpt>
      <trkpt lat="42.86687" lon="0.18933">
        <ele>2219</ele>
        <time>2021-10-29T15:09:01Z</time>
      </trkpt>
      <trkpt lat="42.86691" lon="0.18908">
        <ele>2218</ele>
        <time>2021-10-29T15:09:16Z</time>
      </trkpt>
      <trkpt lat="42.86699" lon="0.18901">
        <ele>2217</ele>
        <time>2021-10-29T15:09:23Z</time>
      </trkpt>
      <trkpt lat="42.86707" lon="0.18891">
        <ele>2217</ele>
        <time>2021-10-29T15:09:32Z</time>
      </trkpt>
      <trkpt lat="42.86717" lon="0.18867">
        <ele>2215</ele>
        <time>2021-10-29T15:09:48Z</time>
      </trkpt>
      <trkpt lat="42.86774" lon="0.18822">
        <ele>2216</ele>
        <time>2021-10-29T15:10:41Z</time>
      </trkpt>
      <trkpt lat="42.86795" lon="0.18822">
        <ele>2219</ele>
        <time>2021-10-29T15:10:58Z</time>
      </trkpt>
      <trkpt lat="42.86823" lon="0.18793">
        <ele>2221</ele>
        <time>2021-10-29T15:11:26Z</time>
      </trkpt>
      <trkpt lat="42.86835" lon="0.18775">
        <ele>2220</ele>
        <time>2021-10-29T15:11:40Z</time>
      </trkpt>
      <trkpt lat="42.86852" lon="0.18762">
        <ele>2222</ele>
        <time>2021-10-29T15:11:56Z</time>
      </trkpt>
      <trkpt lat="42.86859" lon="0.18752">
        <ele>2222</ele>
        <time>2021-10-29T15:12:04Z</time>
      </trkpt>
      <trkpt lat="42.86862" lon="0.18751">
        <ele>2222</ele>
        <time>2021-10-29T15:12:06Z</time>
      </trkpt>
      <trkpt lat="42.86865" lon="0.18746">
        <ele>2223</ele>
        <time>2021-10-29T15:12:10Z</time>
      </trkpt>
      <trkpt lat="42.86875" lon="0.18746">
        <ele>2225</ele>
        <time>2021-10-29T15:12:18Z</time>
      </trkpt>
      <trkpt lat="42.86878" lon="0.18742">
        <ele>2226</ele>
        <time>2021-10-29T15:12:21Z</time>
      </trkpt>
      <trkpt lat="42.86881" lon="0.1874">
        <ele>2227</ele>
        <time>2021-10-29T15:12:24Z</time>
      </trkpt>
      <trkpt lat="42.86886" lon="0.18731">
        <ele>2229</ele>
        <time>2021-10-29T15:12:31Z</time>
      </trkpt>
      <trkpt lat="42.869" lon="0.18716">
        <ele>2232</ele>
        <time>2021-10-29T15:12:45Z</time>
      </trkpt>
      <trkpt lat="42.86929" lon="0.18696">
        <ele>2240</ele>
        <time>2021-10-29T15:13:11Z</time>
      </trkpt>
      <trkpt lat="42.86966" lon="0.18679">
        <ele>2252</ele>
        <time>2021-10-29T15:13:42Z</time>
      </trkpt>
      <trkpt lat="42.86976" lon="0.18676">
        <ele>2255</ele>
        <time>2021-10-29T15:13:50Z</time>
      </trkpt>
      <trkpt lat="42.86984" lon="0.18678">
        <ele>2257</ele>
        <time>2021-10-29T15:13:57Z</time>
      </trkpt>
      <trkpt lat="42.87005" lon="0.18677">
        <ele>2263</ele>
        <time>2021-10-29T15:14:14Z</time>
      </trkpt>
      <trkpt lat="42.87027" lon="0.18683">
        <ele>2269</ele>
        <time>2021-10-29T15:14:32Z</time>
      </trkpt>
      <trkpt lat="42.87035" lon="0.18688">
        <ele>2272</ele>
        <time>2021-10-29T15:14:39Z</time>
      </trkpt>
      <trkpt lat="42.87048" lon="0.18692">
        <ele>2275</ele>
        <time>2021-10-29T15:14:50Z</time>
      </trkpt>
      <trkpt lat="42.87067" lon="0.18714">
        <ele>2281</ele>
        <time>2021-10-29T15:15:09Z</time>
      </trkpt>
      <trkpt lat="42.87076" lon="0.18712">
        <ele>2284</ele>
        <time>2021-10-29T15:15:17Z</time>
      </trkpt>
      <trkpt lat="42.87108" lon="0.18721">
        <ele>2287</ele>
        <time>2021-10-29T15:15:43Z</time>
      </trkpt>
      <trkpt lat="42.87114" lon="0.18788">
        <ele>2289</ele>
        <time>2021-10-29T15:16:23Z</time>
      </trkpt>
      <trkpt lat="42.87108" lon="0.18839">
        <ele>2292</ele>
        <time>2021-10-29T15:16:53Z</time>
      </trkpt>
      <trkpt lat="42.87108" lon="0.18849">
        <ele>2292</ele>
        <time>2021-10-29T15:16:59Z</time>
      </trkpt>
      <trkpt lat="42.87094" lon="0.18872">
        <ele>2294</ele>
        <time>2021-10-29T15:17:16Z</time>
      </trkpt>
      <trkpt lat="42.87076" lon="0.18894">
        <ele>2296</ele>
        <time>2021-10-29T15:17:36Z</time>
      </trkpt>
      <trkpt lat="42.87073" lon="0.18909">
        <ele>2297</ele>
        <time>2021-10-29T15:17:45Z</time>
      </trkpt>
      <trkpt lat="42.87037" lon="0.18908">
        <ele>2298</ele>
        <time>2021-10-29T15:18:14Z</time>
      </trkpt>
      <trkpt lat="42.87039" lon="0.18935">
        <ele>2303</ele>
        <time>2021-10-29T15:18:29Z</time>
      </trkpt>
      <trkpt lat="42.87035" lon="0.19022">
        <ele>2313</ele>
        <time>2021-10-29T15:19:21Z</time>
      </trkpt>
      <trkpt lat="42.87023" lon="0.19036">
        <ele>2316</ele>
        <time>2021-10-29T15:19:33Z</time>
      </trkpt>
      <trkpt lat="42.87013" lon="0.19086">
        <ele>2317</ele>
        <time>2021-10-29T15:20:04Z</time>
      </trkpt>
      <trkpt lat="42.87005" lon="0.19103">
        <ele>2318</ele>
        <time>2021-10-29T15:20:16Z</time>
      </trkpt>
      <trkpt lat="42.87001" lon="0.1913">
        <ele>2316</ele>
        <time>2021-10-29T15:20:32Z</time>
      </trkpt>
      <trkpt lat="42.87009" lon="0.19139">
        <ele>2313</ele>
        <time>2021-10-29T15:20:40Z</time>
      </trkpt>
      <trkpt lat="42.87018" lon="0.19145">
        <ele>2311</ele>
        <time>2021-10-29T15:20:48Z</time>
      </trkpt>
      <trkpt lat="42.87019" lon="0.19151">
        <ele>2310</ele>
        <time>2021-10-29T15:20:52Z</time>
      </trkpt>
      <trkpt lat="42.87022" lon="0.19158">
        <ele>2309</ele>
        <time>2021-10-29T15:20:56Z</time>
      </trkpt>
      <trkpt lat="42.87028" lon="0.19163">
        <ele>2308</ele>
        <time>2021-10-29T15:21:02Z</time>
      </trkpt>
      <trkpt lat="42.8703" lon="0.19168">
        <ele>2307</ele>
        <time>2021-10-29T15:21:05Z</time>
      </trkpt>
      <trkpt lat="42.87055" lon="0.19174">
        <ele>2303</ele>
        <time>2021-10-29T15:21:26Z</time>
      </trkpt>
      <trkpt lat="42.87045" lon="0.19211">
        <ele>2304</ele>
        <time>2021-10-29T15:21:49Z</time>
      </trkpt>
      <trkpt lat="42.8704" lon="0.19255">
        <ele>2305</ele>
        <time>2021-10-29T15:22:15Z</time>
      </trkpt>
      <trkpt lat="42.87029" lon="0.1929">
        <ele>2307</ele>
        <time>2021-10-29T15:22:37Z</time>
      </trkpt>
      <trkpt lat="42.87006" lon="0.19336">
        <ele>2311</ele>
        <time>2021-10-29T15:23:10Z</time>
      </trkpt>
      <trkpt lat="42.86996" lon="0.1935">
        <ele>2314</ele>
        <time>2021-10-29T15:23:21Z</time>
      </trkpt>
      <trkpt lat="42.86992" lon="0.19361">
        <ele>2316</ele>
        <time>2021-10-29T15:23:29Z</time>
      </trkpt>
      <trkpt lat="42.8699" lon="0.19373">
        <ele>2319</ele>
        <time>2021-10-29T15:23:36Z</time>
      </trkpt>
      <trkpt lat="42.8699" lon="0.19386">
        <ele>2320</ele>
        <time>2021-10-29T15:23:44Z</time>
      </trkpt>
      <trkpt lat="42.86988" lon="0.19393">
        <ele>2322</ele>
        <time>2021-10-29T15:23:48Z</time>
      </trkpt>
      <trkpt lat="42.86983" lon="0.19401">
        <ele>2324</ele>
        <time>2021-10-29T15:23:54Z</time>
      </trkpt>
      <trkpt lat="42.86983" lon="0.19407">
        <ele>2324</ele>
        <time>2021-10-29T15:23:58Z</time>
      </trkpt>
      <trkpt lat="42.86979" lon="0.19419">
        <ele>2327</ele>
        <time>2021-10-29T15:24:05Z</time>
      </trkpt>
      <trkpt lat="42.86977" lon="0.19437">
        <ele>2330</ele>
        <time>2021-10-29T15:24:16Z</time>
      </trkpt>
      <trkpt lat="42.86978" lon="0.19441">
        <ele>2330</ele>
        <time>2021-10-29T15:24:19Z</time>
      </trkpt>
      <trkpt lat="42.86975" lon="0.19445">
        <ele>2331</ele>
        <time>2021-10-29T15:24:22Z</time>
      </trkpt>
      <trkpt lat="42.86974" lon="0.19451">
        <ele>2332</ele>
        <time>2021-10-29T15:24:25Z</time>
      </trkpt>
      <trkpt lat="42.86967" lon="0.19452">
        <ele>2333</ele>
        <time>2021-10-29T15:24:31Z</time>
      </trkpt>
      <trkpt lat="42.86966" lon="0.19454">
        <ele>2334</ele>
        <time>2021-10-29T15:24:33Z</time>
      </trkpt>
      <trkpt lat="42.86967" lon="0.19463">
        <ele>2335</ele>
        <time>2021-10-29T15:24:38Z</time>
      </trkpt>
      <trkpt lat="42.86964" lon="0.19479">
        <ele>2338</ele>
        <time>2021-10-29T15:24:48Z</time>
      </trkpt>
      <trkpt lat="42.86965" lon="0.19497">
        <ele>2340</ele>
        <time>2021-10-29T15:24:58Z</time>
      </trkpt>
      <trkpt lat="42.86968" lon="0.19508">
        <ele>2341</ele>
        <time>2021-10-29T15:25:05Z</time>
      </trkpt>
      <trkpt lat="42.86975" lon="0.19522">
        <ele>2342</ele>
        <time>2021-10-29T15:25:15Z</time>
      </trkpt>
      <trkpt lat="42.86981" lon="0.19544">
        <ele>2344</ele>
        <time>2021-10-29T15:25:29Z</time>
      </trkpt>
      <trkpt lat="42.86985" lon="0.19553">
        <ele>2345</ele>
        <time>2021-10-29T15:25:35Z</time>
      </trkpt>
      <trkpt lat="42.86986" lon="0.19564">
        <ele>2346</ele>
        <time>2021-10-29T15:25:41Z</time>
      </trkpt>
      <trkpt lat="42.86984" lon="0.19576">
        <ele>2348</ele>
        <time>2021-10-29T15:25:49Z</time>
      </trkpt>
      <trkpt lat="42.86984" lon="0.19594">
        <ele>2350</ele>
        <time>2021-10-29T15:25:59Z</time>
      </trkpt>
      <trkpt lat="42.86996" lon="0.19621">
        <ele>2352</ele>
        <time>2021-10-29T15:26:18Z</time>
      </trkpt>
      <trkpt lat="42.86999" lon="0.19625">
        <ele>2352</ele>
        <time>2021-10-29T15:26:21Z</time>
      </trkpt>
      <trkpt lat="42.87" lon="0.19632">
        <ele>2352</ele>
        <time>2021-10-29T15:26:25Z</time>
      </trkpt>
      <trkpt lat="42.87006" lon="0.19649">
        <ele>2355</ele>
        <time>2021-10-29T15:26:36Z</time>
      </trkpt>
      <trkpt lat="42.87006" lon="0.1966">
        <ele>2356</ele>
        <time>2021-10-29T15:26:43Z</time>
      </trkpt>
      <trkpt lat="42.87013" lon="0.19682">
        <ele>2361</ele>
        <time>2021-10-29T15:26:57Z</time>
      </trkpt>
      <trkpt lat="42.87015" lon="0.19698">
        <ele>2364</ele>
        <time>2021-10-29T15:27:06Z</time>
      </trkpt>
      <trkpt lat="42.8702" lon="0.19711">
        <ele>2367</ele>
        <time>2021-10-29T15:27:15Z</time>
      </trkpt>
      <trkpt lat="42.87031" lon="0.19726">
        <ele>2372</ele>
        <time>2021-10-29T15:27:28Z</time>
      </trkpt>
      <trkpt lat="42.87031" lon="0.19736">
        <ele>2374</ele>
        <time>2021-10-29T15:27:33Z</time>
      </trkpt>
      <trkpt lat="42.87034" lon="0.19739">
        <ele>2375</ele>
        <time>2021-10-29T15:27:36Z</time>
      </trkpt>
      <trkpt lat="42.87037" lon="0.19747">
        <ele>2377</ele>
        <time>2021-10-29T15:27:42Z</time>
      </trkpt>
      <trkpt lat="42.87037" lon="0.19754">
        <ele>2378</ele>
        <time>2021-10-29T15:27:46Z</time>
      </trkpt>
      <trkpt lat="42.87039" lon="0.19762">
        <ele>2380</ele>
        <time>2021-10-29T15:27:51Z</time>
      </trkpt>
      <trkpt lat="42.87046" lon="0.1977">
        <ele>2383</ele>
        <time>2021-10-29T15:27:58Z</time>
      </trkpt>
      <trkpt lat="42.8705" lon="0.19782">
        <ele>2386</ele>
        <time>2021-10-29T15:28:06Z</time>
      </trkpt>
      <trkpt lat="42.8706" lon="0.19793">
        <ele>2389</ele>
        <time>2021-10-29T15:28:16Z</time>
      </trkpt>
      <trkpt lat="42.87062" lon="0.19801">
        <ele>2391</ele>
        <time>2021-10-29T15:28:21Z</time>
      </trkpt>
      <trkpt lat="42.8706" lon="0.19808">
        <ele>2392</ele>
        <time>2021-10-29T15:28:25Z</time>
      </trkpt>
      <trkpt lat="42.8706" lon="0.19818">
        <ele>2394</ele>
        <time>2021-10-29T15:28:31Z</time>
      </trkpt>
      <trkpt lat="42.87066" lon="0.19828">
        <ele>2396</ele>
        <time>2021-10-29T15:28:39Z</time>
      </trkpt>
      <trkpt lat="42.8707" lon="0.19852">
        <ele>2401</ele>
        <time>2021-10-29T15:28:53Z</time>
      </trkpt>
      <trkpt lat="42.87078" lon="0.19853">
        <ele>2402</ele>
        <time>2021-10-29T15:29:00Z</time>
      </trkpt>
      <trkpt lat="42.87079" lon="0.19861">
        <ele>2403</ele>
        <time>2021-10-29T15:29:04Z</time>
      </trkpt>
      <trkpt lat="42.87087" lon="0.19875">
        <ele>2407</ele>
        <time>2021-10-29T15:29:15Z</time>
      </trkpt>
      <trkpt lat="42.87088" lon="0.1988">
        <ele>2408</ele>
        <time>2021-10-29T15:29:18Z</time>
      </trkpt>
      <trkpt lat="42.87085" lon="0.19903">
        <ele>2411</ele>
        <time>2021-10-29T15:29:32Z</time>
      </trkpt>
      <trkpt lat="42.87088" lon="0.19908">
        <ele>2413</ele>
        <time>2021-10-29T15:29:35Z</time>
      </trkpt>
      <trkpt lat="42.87088" lon="0.19913">
        <ele>2414</ele>
        <time>2021-10-29T15:29:38Z</time>
      </trkpt>
      <trkpt lat="42.87096" lon="0.19921">
        <ele>2419</ele>
        <time>2021-10-29T15:29:46Z</time>
      </trkpt>
      <trkpt lat="42.87096" lon="0.19928">
        <ele>2421</ele>
        <time>2021-10-29T15:29:50Z</time>
      </trkpt>
      <trkpt lat="42.87103" lon="0.19939">
        <ele>2427</ele>
        <time>2021-10-29T15:29:59Z</time>
      </trkpt>
      <trkpt lat="42.87092" lon="0.19943">
        <ele>2424</ele>
        <time>2021-10-29T15:30:08Z</time>
      </trkpt>
      <trkpt lat="42.87092" lon="0.19947">
        <ele>2425</ele>
        <time>2021-10-29T15:30:10Z</time>
      </trkpt>
      <trkpt lat="42.87097" lon="0.19952">
        <ele>2429</ele>
        <time>2021-10-29T15:30:15Z</time>
      </trkpt>
      <trkpt lat="42.87099" lon="0.19958">
        <ele>2431</ele>
        <time>2021-10-29T15:30:19Z</time>
      </trkpt>
      <trkpt lat="42.87104" lon="0.19963">
        <ele>2434</ele>
        <time>2021-10-29T15:30:24Z</time>
      </trkpt>
      <trkpt lat="42.87104" lon="0.19965">
        <ele>2435</ele>
        <time>2021-10-29T15:30:25Z</time>
      </trkpt>
      <trkpt lat="42.871" lon="0.19967">
        <ele>2434</ele>
        <time>2021-10-29T15:30:29Z</time>
      </trkpt>
      <trkpt lat="42.871" lon="0.1997">
        <ele>2435</ele>
        <time>2021-10-29T15:30:31Z</time>
      </trkpt>
      <trkpt lat="42.87103" lon="0.1997">
        <ele>2436</ele>
        <time>2021-10-29T15:30:33Z</time>
      </trkpt>
      <trkpt lat="42.87105" lon="0.19974">
        <ele>2438</ele>
        <time>2021-10-29T15:30:36Z</time>
      </trkpt>
      <trkpt lat="42.87108" lon="0.19973">
        <ele>2439</ele>
        <time>2021-10-29T15:30:38Z</time>
      </trkpt>
      <trkpt lat="42.87101" lon="0.1999">
        <ele>2441</ele>
        <time>2021-10-29T15:30:50Z</time>
      </trkpt>
      <trkpt lat="42.87112" lon="0.19993">
        <ele>2446</ele>
        <time>2021-10-29T15:30:59Z</time>
      </trkpt>
      <trkpt lat="42.87114" lon="0.19998">
        <ele>2448</ele>
        <time>2021-10-29T15:31:02Z</time>
      </trkpt>
      <trkpt lat="42.8711" lon="0.20002">
        <ele>2448</ele>
        <time>2021-10-29T15:31:06Z</time>
      </trkpt>
      <trkpt lat="42.87105" lon="0.20016">
        <ele>2452</ele>
        <time>2021-10-29T15:31:15Z</time>
      </trkpt>
      <trkpt lat="42.87105" lon="0.2002">
        <ele>2454</ele>
        <time>2021-10-29T15:31:18Z</time>
      </trkpt>
      <trkpt lat="42.87097" lon="0.20037">
        <ele>2460</ele>
        <time>2021-10-29T15:31:29Z</time>
      </trkpt>
      <trkpt lat="42.87115" lon="0.2004">
        <ele>2464</ele>
        <time>2021-10-29T15:31:44Z</time>
      </trkpt>
      <trkpt lat="42.87111" lon="0.20052">
        <ele>2468</ele>
        <time>2021-10-29T15:31:52Z</time>
      </trkpt>
      <trkpt lat="42.87101" lon="0.20068">
        <ele>2474</ele>
        <time>2021-10-29T15:32:04Z</time>
      </trkpt>
      <trkpt lat="42.8711" lon="0.20069">
        <ele>2475</ele>
        <time>2021-10-29T15:32:11Z</time>
      </trkpt>
      <trkpt lat="42.87118" lon="0.20068">
        <ele>2475</ele>
        <time>2021-10-29T15:32:18Z</time>
      </trkpt>
      <trkpt lat="42.87116" lon="0.20077">
        <ele>2478</ele>
        <time>2021-10-29T15:32:23Z</time>
      </trkpt>
      <trkpt lat="42.8711" lon="0.20085">
        <ele>2480</ele>
        <time>2021-10-29T15:32:30Z</time>
      </trkpt>
      <trkpt lat="42.87118" lon="0.20089">
        <ele>2480</ele>
        <time>2021-10-29T15:32:37Z</time>
      </trkpt>
      <trkpt lat="42.87116" lon="0.20095">
        <ele>2479</ele>
        <time>2021-10-29T15:32:41Z</time>
      </trkpt>
      <trkpt lat="42.87118" lon="0.20106">
        <ele>2477</ele>
        <time>2021-10-29T15:32:47Z</time>
      </trkpt>
      <trkpt lat="42.87115" lon="0.20114">
        <ele>2476</ele>
        <time>2021-10-29T15:32:52Z</time>
      </trkpt>
      <trkpt lat="42.8712" lon="0.20123">
        <ele>2475</ele>
        <time>2021-10-29T15:32:59Z</time>
      </trkpt>
      <trkpt lat="42.87118" lon="0.20127">
        <ele>2474</ele>
        <time>2021-10-29T15:33:02Z</time>
      </trkpt>
      <trkpt lat="42.87119" lon="0.20131">
        <ele>2473</ele>
        <time>2021-10-29T15:33:04Z</time>
      </trkpt>
      <trkpt lat="42.87096" lon="0.20141">
        <ele>2474</ele>
        <time>2021-10-29T15:33:24Z</time>
      </trkpt>
      <trkpt lat="42.87083" lon="0.20151">
        <ele>2474</ele>
        <time>2021-10-29T15:33:36Z</time>
      </trkpt>
      <trkpt lat="42.87073" lon="0.20154">
        <ele>2475</ele>
        <time>2021-10-29T15:33:44Z</time>
      </trkpt>
      <trkpt lat="42.87064" lon="0.20161">
        <ele>2476</ele>
        <time>2021-10-29T15:33:52Z</time>
      </trkpt>
      <trkpt lat="42.87053" lon="0.20163">
        <ele>2478</ele>
        <time>2021-10-29T15:34:01Z</time>
      </trkpt>
      <trkpt lat="42.87042" lon="0.20176">
        <ele>2476</ele>
        <time>2021-10-29T15:34:13Z</time>
      </trkpt>
      <trkpt lat="42.87035" lon="0.20182">
        <ele>2475</ele>
        <time>2021-10-29T15:34:19Z</time>
      </trkpt>
      <trkpt lat="42.87014" lon="0.2019">
        <ele>2475</ele>
        <time>2021-10-29T15:34:37Z</time>
      </trkpt>
      <trkpt lat="42.87008" lon="0.20197">
        <ele>2474</ele>
        <time>2021-10-29T15:34:43Z</time>
      </trkpt>
      <trkpt lat="42.86993" lon="0.20204">
        <ele>2476</ele>
        <time>2021-10-29T15:34:56Z</time>
      </trkpt>
      <trkpt lat="42.86916" lon="0.20295">
        <ele>2488</ele>
        <time>2021-10-29T15:36:17Z</time>
      </trkpt>
      <trkpt lat="42.86888" lon="0.20337">
        <ele>2490</ele>
        <time>2021-10-29T15:36:51Z</time>
      </trkpt>
      <trkpt lat="42.86881" lon="0.2034">
        <ele>2494</ele>
        <time>2021-10-29T15:36:57Z</time>
      </trkpt>
      <trkpt lat="42.86866" lon="0.20355">
        <ele>2498</ele>
        <time>2021-10-29T15:37:11Z</time>
      </trkpt>
      <trkpt lat="42.86859" lon="0.20366">
        <ele>2499</ele>
        <time>2021-10-29T15:37:20Z</time>
      </trkpt>
      <trkpt lat="42.86854" lon="0.20368">
        <ele>2501</ele>
        <time>2021-10-29T15:37:24Z</time>
      </trkpt>
      <trkpt lat="42.86847" lon="0.20376">
        <ele>2502</ele>
        <time>2021-10-29T15:37:32Z</time>
      </trkpt>
      <trkpt lat="42.86827" lon="0.20388">
        <ele>2509</ele>
        <time>2021-10-29T15:37:49Z</time>
      </trkpt>
      <trkpt lat="42.86811" lon="0.20405">
        <ele>2512</ele>
        <time>2021-10-29T15:38:05Z</time>
      </trkpt>
      <trkpt lat="42.86784" lon="0.20445">
        <ele>2513</ele>
        <time>2021-10-29T15:38:37Z</time>
      </trkpt>
      <trkpt lat="42.86778" lon="0.20458">
        <ele>2512</ele>
        <time>2021-10-29T15:38:46Z</time>
      </trkpt>
      <trkpt lat="42.86756" lon="0.20485">
        <ele>2515</ele>
        <time>2021-10-29T15:39:10Z</time>
      </trkpt>
      <trkpt lat="42.86735" lon="0.2053">
        <ele>2503</ele>
        <time>2021-10-29T15:39:41Z</time>
      </trkpt>
      <trkpt lat="42.86729" lon="0.20569">
        <ele>2490</ele>
        <time>2021-10-29T15:40:05Z</time>
      </trkpt>
      <trkpt lat="42.86722" lon="0.20585">
        <ele>2485</ele>
        <time>2021-10-29T15:40:15Z</time>
      </trkpt>
      <trkpt lat="42.86717" lon="0.20593">
        <ele>2485</ele>
        <time>2021-10-29T15:40:22Z</time>
      </trkpt>
      <trkpt lat="42.86716" lon="0.206">
        <ele>2485</ele>
        <time>2021-10-29T15:40:26Z</time>
      </trkpt>
      <trkpt lat="42.86717" lon="0.20593">
        <ele>2485</ele>
        <time>2021-10-29T15:40:30Z</time>
      </trkpt>
      <trkpt lat="42.86715" lon="0.20589">
        <ele>2484</ele>
        <time>2021-10-29T15:40:33Z</time>
      </trkpt>
      <trkpt lat="42.86715" lon="0.20582">
        <ele>2485</ele>
        <time>2021-10-29T15:40:37Z</time>
      </trkpt>
      <trkpt lat="42.86712" lon="0.20579">
        <ele>2486</ele>
        <time>2021-10-29T15:40:40Z</time>
      </trkpt>
      <trkpt lat="42.86715" lon="0.20572">
        <ele>2488</ele>
        <time>2021-10-29T15:40:45Z</time>
      </trkpt>
      <trkpt lat="42.86711" lon="0.20565">
        <ele>2490</ele>
        <time>2021-10-29T15:40:50Z</time>
      </trkpt>
      <trkpt lat="42.86701" lon="0.20536">
        <ele>2500</ele>
        <time>2021-10-29T15:41:09Z</time>
      </trkpt>
      <trkpt lat="42.86698" lon="0.20506">
        <ele>2510</ele>
        <time>2021-10-29T15:41:27Z</time>
      </trkpt>
      <trkpt lat="42.86701" lon="0.20499">
        <ele>2512</ele>
        <time>2021-10-29T15:41:31Z</time>
      </trkpt>
      <trkpt lat="42.86696" lon="0.20437">
        <ele>2532</ele>
        <time>2021-10-29T15:42:08Z</time>
      </trkpt>
      <trkpt lat="42.86698" lon="0.20428">
        <ele>2536</ele>
        <time>2021-10-29T15:42:13Z</time>
      </trkpt>
      <trkpt lat="42.86691" lon="0.20359">
        <ele>2562</ele>
        <time>2021-10-29T15:42:54Z</time>
      </trkpt>
      <trkpt lat="42.86679" lon="0.20335">
        <ele>2571</ele>
        <time>2021-10-29T15:43:11Z</time>
      </trkpt>
      <trkpt lat="42.86674" lon="0.20313">
        <ele>2579</ele>
        <time>2021-10-29T15:43:25Z</time>
      </trkpt>
      <trkpt lat="42.86673" lon="0.20303">
        <ele>2583</ele>
        <time>2021-10-29T15:43:31Z</time>
      </trkpt>
      <trkpt lat="42.86683" lon="0.20308">
        <ele>2581</ele>
        <time>2021-10-29T15:43:39Z</time>
      </trkpt>
      <trkpt lat="42.86682" lon="0.2029">
        <ele>2588</ele>
        <time>2021-10-29T15:43:50Z</time>
      </trkpt>
      <trkpt lat="42.86696" lon="0.20292">
        <ele>2586</ele>
        <time>2021-10-29T15:44:01Z</time>
      </trkpt>
      <trkpt lat="42.86702" lon="0.20234">
        <ele>2603</ele>
        <time>2021-10-29T15:44:36Z</time>
      </trkpt>
      <trkpt lat="42.86693" lon="0.20201">
        <ele>2612</ele>
        <time>2021-10-29T15:44:56Z</time>
      </trkpt>
      <trkpt lat="42.8669" lon="0.20188">
        <ele>2616</ele>
        <time>2021-10-29T15:45:04Z</time>
      </trkpt>
      <trkpt lat="42.86689" lon="0.20173">
        <ele>2620</ele>
        <time>2021-10-29T15:45:13Z</time>
      </trkpt>
      <trkpt lat="42.86681" lon="0.20156">
        <ele>2625</ele>
        <time>2021-10-29T15:45:25Z</time>
      </trkpt>
      <trkpt lat="42.86668" lon="0.20145">
        <ele>2632</ele>
        <time>2021-10-29T15:45:37Z</time>
      </trkpt>
      <trkpt lat="42.86659" lon="0.20134">
        <ele>2635</ele>
        <time>2021-10-29T15:45:47Z</time>
      </trkpt>
      <trkpt lat="42.86655" lon="0.20121">
        <ele>2637</ele>
        <time>2021-10-29T15:45:55Z</time>
      </trkpt>
      <trkpt lat="42.86654" lon="0.20091">
        <ele>2643</ele>
        <time>2021-10-29T15:46:13Z</time>
      </trkpt>
      <trkpt lat="42.86646" lon="0.2007">
        <ele>2645</ele>
        <time>2021-10-29T15:46:27Z</time>
      </trkpt>
      <trkpt lat="42.86642" lon="0.20057">
        <ele>2643</ele>
        <time>2021-10-29T15:46:35Z</time>
      </trkpt>
      <trkpt lat="42.8663" lon="0.20038">
        <ele>2644</ele>
        <time>2021-10-29T15:46:50Z</time>
      </trkpt>
      <trkpt lat="42.86626" lon="0.20029">
        <ele>2644</ele>
        <time>2021-10-29T15:46:56Z</time>
      </trkpt>
      <trkpt lat="42.8662" lon="0.20025">
        <ele>2646</ele>
        <time>2021-10-29T15:47:01Z</time>
      </trkpt>
      <trkpt lat="42.86613" lon="0.2003">
        <ele>2651</ele>
        <time>2021-10-29T15:47:07Z</time>
      </trkpt>
      <trkpt lat="42.86595" lon="0.20078">
        <ele>2668</ele>
        <time>2021-10-29T15:47:39Z</time>
      </trkpt>
      <trkpt lat="42.86613" lon="0.2003">
        <ele>2651</ele>
        <time>2021-10-29T15:48:11Z</time>
      </trkpt>
      <trkpt lat="42.8662" lon="0.20025">
        <ele>2646</ele>
        <time>2021-10-29T15:48:17Z</time>
      </trkpt>
      <trkpt lat="42.86626" lon="0.20029">
        <ele>2644</ele>
        <time>2021-10-29T15:48:22Z</time>
      </trkpt>
      <trkpt lat="42.8663" lon="0.20038">
        <ele>2644</ele>
        <time>2021-10-29T15:48:29Z</time>
      </trkpt>
      <trkpt lat="42.86642" lon="0.20057">
        <ele>2643</ele>
        <time>2021-10-29T15:48:43Z</time>
      </trkpt>
      <trkpt lat="42.86646" lon="0.2007">
        <ele>2645</ele>
        <time>2021-10-29T15:48:52Z</time>
      </trkpt>
      <trkpt lat="42.86654" lon="0.20091">
        <ele>2643</ele>
        <time>2021-10-29T15:49:05Z</time>
      </trkpt>
      <trkpt lat="42.86655" lon="0.20121">
        <ele>2637</ele>
        <time>2021-10-29T15:49:23Z</time>
      </trkpt>
      <trkpt lat="42.86659" lon="0.20134">
        <ele>2635</ele>
        <time>2021-10-29T15:49:31Z</time>
      </trkpt>
      <trkpt lat="42.86668" lon="0.20145">
        <ele>2632</ele>
        <time>2021-10-29T15:49:41Z</time>
      </trkpt>
      <trkpt lat="42.86681" lon="0.20156">
        <ele>2625</ele>
        <time>2021-10-29T15:49:53Z</time>
      </trkpt>
      <trkpt lat="42.86689" lon="0.20173">
        <ele>2620</ele>
        <time>2021-10-29T15:50:05Z</time>
      </trkpt>
      <trkpt lat="42.8669" lon="0.20188">
        <ele>2616</ele>
        <time>2021-10-29T15:50:14Z</time>
      </trkpt>
      <trkpt lat="42.86693" lon="0.20201">
        <ele>2612</ele>
        <time>2021-10-29T15:50:22Z</time>
      </trkpt>
      <trkpt lat="42.86702" lon="0.20234">
        <ele>2603</ele>
        <time>2021-10-29T15:50:43Z</time>
      </trkpt>
      <trkpt lat="42.86696" lon="0.20292">
        <ele>2586</ele>
        <time>2021-10-29T15:51:17Z</time>
      </trkpt>
      <trkpt lat="42.86682" lon="0.2029">
        <ele>2588</ele>
        <time>2021-10-29T15:51:28Z</time>
      </trkpt>
      <trkpt lat="42.86683" lon="0.20308">
        <ele>2581</ele>
        <time>2021-10-29T15:51:39Z</time>
      </trkpt>
      <trkpt lat="42.86673" lon="0.20303">
        <ele>2583</ele>
        <time>2021-10-29T15:51:47Z</time>
      </trkpt>
      <trkpt lat="42.86674" lon="0.20313">
        <ele>2579</ele>
        <time>2021-10-29T15:51:53Z</time>
      </trkpt>
      <trkpt lat="42.86679" lon="0.20335">
        <ele>2571</ele>
        <time>2021-10-29T15:52:07Z</time>
      </trkpt>
      <trkpt lat="42.86691" lon="0.20359">
        <ele>2562</ele>
        <time>2021-10-29T15:52:24Z</time>
      </trkpt>
      <trkpt lat="42.86698" lon="0.20428">
        <ele>2536</ele>
        <time>2021-10-29T15:53:05Z</time>
      </trkpt>
      <trkpt lat="42.86696" lon="0.20437">
        <ele>2532</ele>
        <time>2021-10-29T15:53:10Z</time>
      </trkpt>
      <trkpt lat="42.86701" lon="0.20499">
        <ele>2512</ele>
        <time>2021-10-29T15:53:47Z</time>
      </trkpt>
      <trkpt lat="42.86698" lon="0.20506">
        <ele>2510</ele>
        <time>2021-10-29T15:53:52Z</time>
      </trkpt>
      <trkpt lat="42.86701" lon="0.20536">
        <ele>2500</ele>
        <time>2021-10-29T15:54:09Z</time>
      </trkpt>
      <trkpt lat="42.86711" lon="0.20565">
        <ele>2490</ele>
        <time>2021-10-29T15:54:28Z</time>
      </trkpt>
      <trkpt lat="42.86715" lon="0.20572">
        <ele>2488</ele>
        <time>2021-10-29T15:54:33Z</time>
      </trkpt>
      <trkpt lat="42.86712" lon="0.20579">
        <ele>2486</ele>
        <time>2021-10-29T15:54:38Z</time>
      </trkpt>
      <trkpt lat="42.86715" lon="0.20582">
        <ele>2485</ele>
        <time>2021-10-29T15:54:41Z</time>
      </trkpt>
      <trkpt lat="42.86715" lon="0.20589">
        <ele>2484</ele>
        <time>2021-10-29T15:54:45Z</time>
      </trkpt>
      <trkpt lat="42.86717" lon="0.20593">
        <ele>2485</ele>
        <time>2021-10-29T15:54:48Z</time>
      </trkpt>
      <trkpt lat="42.86715" lon="0.20597">
        <ele>2484</ele>
        <time>2021-10-29T15:54:51Z</time>
      </trkpt>
      <trkpt lat="42.86717" lon="0.20604">
        <ele>2485</ele>
        <time>2021-10-29T15:54:55Z</time>
      </trkpt>
      <trkpt lat="42.86716" lon="0.20617">
        <ele>2485</ele>
        <time>2021-10-29T15:55:03Z</time>
      </trkpt>
      <trkpt lat="42.86719" lon="0.2062">
        <ele>2485</ele>
        <time>2021-10-29T15:55:06Z</time>
      </trkpt>
      <trkpt lat="42.86718" lon="0.20626">
        <ele>2485</ele>
        <time>2021-10-29T15:55:10Z</time>
      </trkpt>
      <trkpt lat="42.86717" lon="0.20641">
        <ele>2485</ele>
        <time>2021-10-29T15:55:18Z</time>
      </trkpt>
      <trkpt lat="42.86716" lon="0.20641">
        <ele>2485</ele>
        <time>2021-10-29T15:55:19Z</time>
      </trkpt>
      <trkpt lat="42.86712" lon="0.20648">
        <ele>2485</ele>
        <time>2021-10-29T15:55:24Z</time>
      </trkpt>
      <trkpt lat="42.86706" lon="0.20646">
        <ele>2484</ele>
        <time>2021-10-29T15:55:29Z</time>
      </trkpt>
      <trkpt lat="42.86704" lon="0.20642">
        <ele>2484</ele>
        <time>2021-10-29T15:55:32Z</time>
      </trkpt>
      <trkpt lat="42.86689" lon="0.20638">
        <ele>2483</ele>
        <time>2021-10-29T15:55:44Z</time>
      </trkpt>
      <trkpt lat="42.86686" lon="0.20639">
        <ele>2482</ele>
        <time>2021-10-29T15:55:47Z</time>
      </trkpt>
      <trkpt lat="42.86687" lon="0.2065">
        <ele>2482</ele>
        <time>2021-10-29T15:55:53Z</time>
      </trkpt>
      <trkpt lat="42.86686" lon="0.20651">
        <ele>2482</ele>
        <time>2021-10-29T15:55:54Z</time>
      </trkpt>
      <trkpt lat="42.86684" lon="0.2065">
        <ele>2482</ele>
        <time>2021-10-29T15:55:56Z</time>
      </trkpt>
      <trkpt lat="42.86683" lon="0.2066">
        <ele>2482</ele>
        <time>2021-10-29T15:56:02Z</time>
      </trkpt>
      <trkpt lat="42.86678" lon="0.20666">
        <ele>2481</ele>
        <time>2021-10-29T15:56:07Z</time>
      </trkpt>
      <trkpt lat="42.86674" lon="0.20668">
        <ele>2481</ele>
        <time>2021-10-29T15:56:11Z</time>
      </trkpt>
      <trkpt lat="42.86671" lon="0.20667">
        <ele>2481</ele>
        <time>2021-10-29T15:56:13Z</time>
      </trkpt>
      <trkpt lat="42.86669" lon="0.20664">
        <ele>2480</ele>
        <time>2021-10-29T15:56:16Z</time>
      </trkpt>
      <trkpt lat="42.8667" lon="0.2066">
        <ele>2481</ele>
        <time>2021-10-29T15:56:18Z</time>
      </trkpt>
      <trkpt lat="42.86668" lon="0.2066">
        <ele>2480</ele>
        <time>2021-10-29T15:56:20Z</time>
      </trkpt>
      <trkpt lat="42.86645" lon="0.20682">
        <ele>2476</ele>
        <time>2021-10-29T15:56:42Z</time>
      </trkpt>
      <trkpt lat="42.8663" lon="0.20693">
        <ele>2472</ele>
        <time>2021-10-29T15:56:56Z</time>
      </trkpt>
      <trkpt lat="42.86617" lon="0.20688">
        <ele>2464</ele>
        <time>2021-10-29T15:57:07Z</time>
      </trkpt>
      <trkpt lat="42.86618" lon="0.20682">
        <ele>2462</ele>
        <time>2021-10-29T15:57:10Z</time>
      </trkpt>
      <trkpt lat="42.86609" lon="0.20681">
        <ele>2457</ele>
        <time>2021-10-29T15:57:18Z</time>
      </trkpt>
      <trkpt lat="42.86608" lon="0.20676">
        <ele>2455</ele>
        <time>2021-10-29T15:57:21Z</time>
      </trkpt>
      <trkpt lat="42.86606" lon="0.20676">
        <ele>2454</ele>
        <time>2021-10-29T15:57:22Z</time>
      </trkpt>
      <trkpt lat="42.86604" lon="0.20673">
        <ele>2452</ele>
        <time>2021-10-29T15:57:25Z</time>
      </trkpt>
      <trkpt lat="42.86599" lon="0.20672">
        <ele>2449</ele>
        <time>2021-10-29T15:57:29Z</time>
      </trkpt>
      <trkpt lat="42.86596" lon="0.20666">
        <ele>2446</ele>
        <time>2021-10-29T15:57:33Z</time>
      </trkpt>
      <trkpt lat="42.86577" lon="0.20663">
        <ele>2439</ele>
        <time>2021-10-29T15:57:48Z</time>
      </trkpt>
      <trkpt lat="42.86575" lon="0.2066">
        <ele>2438</ele>
        <time>2021-10-29T15:57:51Z</time>
      </trkpt>
      <trkpt lat="42.86559" lon="0.20651">
        <ele>2435</ele>
        <time>2021-10-29T15:58:04Z</time>
      </trkpt>
      <trkpt lat="42.86549" lon="0.20653">
        <ele>2433</ele>
        <time>2021-10-29T15:58:13Z</time>
      </trkpt>
      <trkpt lat="42.86542" lon="0.20657">
        <ele>2430</ele>
        <time>2021-10-29T15:58:19Z</time>
      </trkpt>
      <trkpt lat="42.86539" lon="0.20656">
        <ele>2430</ele>
        <time>2021-10-29T15:58:21Z</time>
      </trkpt>
      <trkpt lat="42.86537" lon="0.20658">
        <ele>2429</ele>
        <time>2021-10-29T15:58:23Z</time>
      </trkpt>
      <trkpt lat="42.8653" lon="0.20654">
        <ele>2428</ele>
        <time>2021-10-29T15:58:29Z</time>
      </trkpt>
      <trkpt lat="42.86524" lon="0.20655">
        <ele>2426</ele>
        <time>2021-10-29T15:58:34Z</time>
      </trkpt>
      <trkpt lat="42.86519" lon="0.20666">
        <ele>2424</ele>
        <time>2021-10-29T15:58:42Z</time>
      </trkpt>
      <trkpt lat="42.86511" lon="0.20666">
        <ele>2422</ele>
        <time>2021-10-29T15:58:48Z</time>
      </trkpt>
      <trkpt lat="42.86505" lon="0.20674">
        <ele>2421</ele>
        <time>2021-10-29T15:58:55Z</time>
      </trkpt>
      <trkpt lat="42.86495" lon="0.20678">
        <ele>2419</ele>
        <time>2021-10-29T15:59:03Z</time>
      </trkpt>
      <trkpt lat="42.86482" lon="0.20698">
        <ele>2420</ele>
        <time>2021-10-29T15:59:19Z</time>
      </trkpt>
      <trkpt lat="42.86477" lon="0.20698">
        <ele>2419</ele>
        <time>2021-10-29T15:59:23Z</time>
      </trkpt>
      <trkpt lat="42.86473" lon="0.20703">
        <ele>2419</ele>
        <time>2021-10-29T15:59:27Z</time>
      </trkpt>
      <trkpt lat="42.86461" lon="0.20702">
        <ele>2418</ele>
        <time>2021-10-29T15:59:37Z</time>
      </trkpt>
      <trkpt lat="42.86452" lon="0.20706">
        <ele>2418</ele>
        <time>2021-10-29T15:59:44Z</time>
      </trkpt>
      <trkpt lat="42.86437" lon="0.207">
        <ele>2416</ele>
        <time>2021-10-29T15:59:57Z</time>
      </trkpt>
      <trkpt lat="42.86426" lon="0.20699">
        <ele>2415</ele>
        <time>2021-10-29T16:00:06Z</time>
      </trkpt>
      <trkpt lat="42.8642" lon="0.20696">
        <ele>2415</ele>
        <time>2021-10-29T16:00:11Z</time>
      </trkpt>
      <trkpt lat="42.86416" lon="0.20698">
        <ele>2415</ele>
        <time>2021-10-29T16:00:14Z</time>
      </trkpt>
      <trkpt lat="42.86407" lon="0.20696">
        <ele>2414</ele>
        <time>2021-10-29T16:00:21Z</time>
      </trkpt>
      <trkpt lat="42.86401" lon="0.20699">
        <ele>2413</ele>
        <time>2021-10-29T16:00:27Z</time>
      </trkpt>
      <trkpt lat="42.86393" lon="0.20699">
        <ele>2413</ele>
        <time>2021-10-29T16:00:33Z</time>
      </trkpt>
      <trkpt lat="42.86389" lon="0.20701">
        <ele>2412</ele>
        <time>2021-10-29T16:00:36Z</time>
      </trkpt>
      <trkpt lat="42.86378" lon="0.20698">
        <ele>2411</ele>
        <time>2021-10-29T16:00:45Z</time>
      </trkpt>
      <trkpt lat="42.86373" lon="0.207">
        <ele>2411</ele>
        <time>2021-10-29T16:00:50Z</time>
      </trkpt>
      <trkpt lat="42.86368" lon="0.20706">
        <ele>2411</ele>
        <time>2021-10-29T16:00:55Z</time>
      </trkpt>
      <trkpt lat="42.86347" lon="0.20723">
        <ele>2410</ele>
        <time>2021-10-29T16:01:14Z</time>
      </trkpt>
      <trkpt lat="42.86342" lon="0.2072">
        <ele>2409</ele>
        <time>2021-10-29T16:01:19Z</time>
      </trkpt>
      <trkpt lat="42.86331" lon="0.20721">
        <ele>2408</ele>
        <time>2021-10-29T16:01:28Z</time>
      </trkpt>
      <trkpt lat="42.86311" lon="0.20712">
        <ele>2404</ele>
        <time>2021-10-29T16:01:44Z</time>
      </trkpt>
      <trkpt lat="42.86305" lon="0.20714">
        <ele>2404</ele>
        <time>2021-10-29T16:01:49Z</time>
      </trkpt>
      <trkpt lat="42.86298" lon="0.20723">
        <ele>2403</ele>
        <time>2021-10-29T16:01:57Z</time>
      </trkpt>
      <trkpt lat="42.86292" lon="0.20722">
        <ele>2402</ele>
        <time>2021-10-29T16:02:02Z</time>
      </trkpt>
      <trkpt lat="42.86288" lon="0.20727">
        <ele>2402</ele>
        <time>2021-10-29T16:02:06Z</time>
      </trkpt>
      <trkpt lat="42.86271" lon="0.20718">
        <ele>2399</ele>
        <time>2021-10-29T16:02:21Z</time>
      </trkpt>
      <trkpt lat="42.86267" lon="0.20711">
        <ele>2397</ele>
        <time>2021-10-29T16:02:26Z</time>
      </trkpt>
      <trkpt lat="42.86262" lon="0.20712">
        <ele>2397</ele>
        <time>2021-10-29T16:02:30Z</time>
      </trkpt>
      <trkpt lat="42.86248" lon="0.20708">
        <ele>2394</ele>
        <time>2021-10-29T16:02:42Z</time>
      </trkpt>
      <trkpt lat="42.86246" lon="0.20705">
        <ele>2394</ele>
        <time>2021-10-29T16:02:44Z</time>
      </trkpt>
      <trkpt lat="42.86226" lon="0.20697">
        <ele>2391</ele>
        <time>2021-10-29T16:03:01Z</time>
      </trkpt>
      <trkpt lat="42.86215" lon="0.20696">
        <ele>2390</ele>
        <time>2021-10-29T16:03:10Z</time>
      </trkpt>
      <trkpt lat="42.86208" lon="0.20694">
        <ele>2390</ele>
        <time>2021-10-29T16:03:15Z</time>
      </trkpt>
      <trkpt lat="42.86199" lon="0.20697">
        <ele>2389</ele>
        <time>2021-10-29T16:03:23Z</time>
      </trkpt>
      <trkpt lat="42.86177" lon="0.20695">
        <ele>2387</ele>
        <time>2021-10-29T16:03:40Z</time>
      </trkpt>
      <trkpt lat="42.86173" lon="0.20688">
        <ele>2387</ele>
        <time>2021-10-29T16:03:46Z</time>
      </trkpt>
      <trkpt lat="42.86167" lon="0.20686">
        <ele>2386</ele>
        <time>2021-10-29T16:03:50Z</time>
      </trkpt>
      <trkpt lat="42.86161" lon="0.20679">
        <ele>2384</ele>
        <time>2021-10-29T16:03:57Z</time>
      </trkpt>
      <trkpt lat="42.86154" lon="0.20667">
        <ele>2382</ele>
        <time>2021-10-29T16:04:06Z</time>
      </trkpt>
      <trkpt lat="42.86137" lon="0.2065">
        <ele>2376</ele>
        <time>2021-10-29T16:04:23Z</time>
      </trkpt>
      <trkpt lat="42.86118" lon="0.20643">
        <ele>2370</ele>
        <time>2021-10-29T16:04:38Z</time>
      </trkpt>
      <trkpt lat="42.86104" lon="0.2069">
        <ele>2365</ele>
        <time>2021-10-29T16:05:08Z</time>
      </trkpt>
      <trkpt lat="42.86101" lon="0.207">
        <ele>2363</ele>
        <time>2021-10-29T16:05:15Z</time>
      </trkpt>
      <trkpt lat="42.86099" lon="0.207">
        <ele>2362</ele>
        <time>2021-10-29T16:05:16Z</time>
      </trkpt>
      <trkpt lat="42.86097" lon="0.20698">
        <ele>2362</ele>
        <time>2021-10-29T16:05:18Z</time>
      </trkpt>
      <trkpt lat="42.86089" lon="0.20697">
        <ele>2359</ele>
        <time>2021-10-29T16:05:25Z</time>
      </trkpt>
      <trkpt lat="42.86086" lon="0.20694">
        <ele>2358</ele>
        <time>2021-10-29T16:05:28Z</time>
      </trkpt>
      <trkpt lat="42.86079" lon="0.20698">
        <ele>2355</ele>
        <time>2021-10-29T16:05:34Z</time>
      </trkpt>
      <trkpt lat="42.86075" lon="0.20698">
        <ele>2354</ele>
        <time>2021-10-29T16:05:37Z</time>
      </trkpt>
      <trkpt lat="42.86072" lon="0.2069">
        <ele>2354</ele>
        <time>2021-10-29T16:05:42Z</time>
      </trkpt>
      <trkpt lat="42.86055" lon="0.20686">
        <ele>2349</ele>
        <time>2021-10-29T16:05:56Z</time>
      </trkpt>
      <trkpt lat="42.86051" lon="0.20682">
        <ele>2348</ele>
        <time>2021-10-29T16:06:00Z</time>
      </trkpt>
      <trkpt lat="42.86041" lon="0.20683">
        <ele>2345</ele>
        <time>2021-10-29T16:06:08Z</time>
      </trkpt>
      <trkpt lat="42.86032" lon="0.20693">
        <ele>2342</ele>
        <time>2021-10-29T16:06:17Z</time>
      </trkpt>
      <trkpt lat="42.86023" lon="0.20693">
        <ele>2339</ele>
        <time>2021-10-29T16:06:24Z</time>
      </trkpt>
      <trkpt lat="42.86014" lon="0.20683">
        <ele>2338</ele>
        <time>2021-10-29T16:06:34Z</time>
      </trkpt>
      <trkpt lat="42.85998" lon="0.20677">
        <ele>2334</ele>
        <time>2021-10-29T16:06:47Z</time>
      </trkpt>
      <trkpt lat="42.85989" lon="0.2068">
        <ele>2333</ele>
        <time>2021-10-29T16:06:54Z</time>
      </trkpt>
      <trkpt lat="42.85986" lon="0.20684">
        <ele>2332</ele>
        <time>2021-10-29T16:06:58Z</time>
      </trkpt>
      <trkpt lat="42.8598" lon="0.20687">
        <ele>2331</ele>
        <time>2021-10-29T16:07:03Z</time>
      </trkpt>
      <trkpt lat="42.85971" lon="0.20688">
        <ele>2330</ele>
        <time>2021-10-29T16:07:10Z</time>
      </trkpt>
      <trkpt lat="42.85969" lon="0.20691">
        <ele>2330</ele>
        <time>2021-10-29T16:07:12Z</time>
      </trkpt>
      <trkpt lat="42.85966" lon="0.2069">
        <ele>2330</ele>
        <time>2021-10-29T16:07:15Z</time>
      </trkpt>
      <trkpt lat="42.85964" lon="0.20693">
        <ele>2329</ele>
        <time>2021-10-29T16:07:17Z</time>
      </trkpt>
      <trkpt lat="42.8595" lon="0.20697">
        <ele>2328</ele>
        <time>2021-10-29T16:07:29Z</time>
      </trkpt>
      <trkpt lat="42.85932" lon="0.20718">
        <ele>2325</ele>
        <time>2021-10-29T16:07:48Z</time>
      </trkpt>
      <trkpt lat="42.85928" lon="0.20727">
        <ele>2324</ele>
        <time>2021-10-29T16:07:54Z</time>
      </trkpt>
      <trkpt lat="42.85929" lon="0.20733">
        <ele>2323</ele>
        <time>2021-10-29T16:07:58Z</time>
      </trkpt>
      <trkpt lat="42.85924" lon="0.2074">
        <ele>2322</ele>
        <time>2021-10-29T16:08:03Z</time>
      </trkpt>
      <trkpt lat="42.85919" lon="0.20742">
        <ele>2322</ele>
        <time>2021-10-29T16:08:07Z</time>
      </trkpt>
      <trkpt lat="42.85914" lon="0.20751">
        <ele>2321</ele>
        <time>2021-10-29T16:08:14Z</time>
      </trkpt>
      <trkpt lat="42.85908" lon="0.20754">
        <ele>2320</ele>
        <time>2021-10-29T16:08:19Z</time>
      </trkpt>
      <trkpt lat="42.85902" lon="0.20751">
        <ele>2320</ele>
        <time>2021-10-29T16:08:24Z</time>
      </trkpt>
      <trkpt lat="42.85897" lon="0.20752">
        <ele>2319</ele>
        <time>2021-10-29T16:08:28Z</time>
      </trkpt>
      <trkpt lat="42.85876" lon="0.20759">
        <ele>2317</ele>
        <time>2021-10-29T16:08:46Z</time>
      </trkpt>
      <trkpt lat="42.85871" lon="0.20758">
        <ele>2316</ele>
        <time>2021-10-29T16:08:50Z</time>
      </trkpt>
      <trkpt lat="42.85855" lon="0.20744">
        <ele>2316</ele>
        <time>2021-10-29T16:09:05Z</time>
      </trkpt>
      <trkpt lat="42.85847" lon="0.20742">
        <ele>2316</ele>
        <time>2021-10-29T16:09:11Z</time>
      </trkpt>
      <trkpt lat="42.85834" lon="0.20743">
        <ele>2315</ele>
        <time>2021-10-29T16:09:22Z</time>
      </trkpt>
      <trkpt lat="42.85825" lon="0.20739">
        <ele>2314</ele>
        <time>2021-10-29T16:09:29Z</time>
      </trkpt>
      <trkpt lat="42.85822" lon="0.20735">
        <ele>2314</ele>
        <time>2021-10-29T16:09:33Z</time>
      </trkpt>
      <trkpt lat="42.85818" lon="0.20734">
        <ele>2313</ele>
        <time>2021-10-29T16:09:36Z</time>
      </trkpt>
      <trkpt lat="42.8581" lon="0.20734">
        <ele>2312</ele>
        <time>2021-10-29T16:09:42Z</time>
      </trkpt>
      <trkpt lat="42.85802" lon="0.20739">
        <ele>2310</ele>
        <time>2021-10-29T16:09:50Z</time>
      </trkpt>
      <trkpt lat="42.85798" lon="0.20739">
        <ele>2310</ele>
        <time>2021-10-29T16:09:53Z</time>
      </trkpt>
      <trkpt lat="42.85793" lon="0.20742">
        <ele>2309</ele>
        <time>2021-10-29T16:09:57Z</time>
      </trkpt>
      <trkpt lat="42.85791" lon="0.20747">
        <ele>2308</ele>
        <time>2021-10-29T16:10:00Z</time>
      </trkpt>
      <trkpt lat="42.85786" lon="0.20748">
        <ele>2307</ele>
        <time>2021-10-29T16:10:04Z</time>
      </trkpt>
      <trkpt lat="42.85776" lon="0.20748">
        <ele>2306</ele>
        <time>2021-10-29T16:10:12Z</time>
      </trkpt>
      <trkpt lat="42.85771" lon="0.20744">
        <ele>2306</ele>
        <time>2021-10-29T16:10:17Z</time>
      </trkpt>
      <trkpt lat="42.85769" lon="0.20741">
        <ele>2306</ele>
        <time>2021-10-29T16:10:20Z</time>
      </trkpt>
      <trkpt lat="42.85765" lon="0.20739">
        <ele>2305</ele>
        <time>2021-10-29T16:10:23Z</time>
      </trkpt>
      <trkpt lat="42.8575" lon="0.20752">
        <ele>2302</ele>
        <time>2021-10-29T16:10:37Z</time>
      </trkpt>
      <trkpt lat="42.85745" lon="0.20752">
        <ele>2301</ele>
        <time>2021-10-29T16:10:41Z</time>
      </trkpt>
      <trkpt lat="42.8574" lon="0.20746">
        <ele>2301</ele>
        <time>2021-10-29T16:10:46Z</time>
      </trkpt>
      <trkpt lat="42.85735" lon="0.20728">
        <ele>2302</ele>
        <time>2021-10-29T16:10:58Z</time>
      </trkpt>
      <trkpt lat="42.85722" lon="0.20729">
        <ele>2300</ele>
        <time>2021-10-29T16:11:08Z</time>
      </trkpt>
      <trkpt lat="42.85719" lon="0.20724">
        <ele>2301</ele>
        <time>2021-10-29T16:11:12Z</time>
      </trkpt>
      <trkpt lat="42.85717" lon="0.20725">
        <ele>2300</ele>
        <time>2021-10-29T16:11:14Z</time>
      </trkpt>
      <trkpt lat="42.85716" lon="0.20731">
        <ele>2299</ele>
        <time>2021-10-29T16:11:17Z</time>
      </trkpt>
      <trkpt lat="42.85709" lon="0.20737">
        <ele>2297</ele>
        <time>2021-10-29T16:11:24Z</time>
      </trkpt>
      <trkpt lat="42.85699" lon="0.20737">
        <ele>2296</ele>
        <time>2021-10-29T16:11:32Z</time>
      </trkpt>
      <trkpt lat="42.85673" lon="0.20712">
        <ele>2297</ele>
        <time>2021-10-29T16:11:57Z</time>
      </trkpt>
      <trkpt lat="42.85669" lon="0.20712">
        <ele>2296</ele>
        <time>2021-10-29T16:12:01Z</time>
      </trkpt>
      <trkpt lat="42.85657" lon="0.20718">
        <ele>2294</ele>
        <time>2021-10-29T16:12:11Z</time>
      </trkpt>
      <trkpt lat="42.8563" lon="0.20738">
        <ele>2290</ele>
        <time>2021-10-29T16:12:35Z</time>
      </trkpt>
      <trkpt lat="42.85608" lon="0.20744">
        <ele>2288</ele>
        <time>2021-10-29T16:12:53Z</time>
      </trkpt>
      <trkpt lat="42.85596" lon="0.20756">
        <ele>2286</ele>
        <time>2021-10-29T16:13:05Z</time>
      </trkpt>
      <trkpt lat="42.85571" lon="0.20786">
        <ele>2280</ele>
        <time>2021-10-29T16:13:32Z</time>
      </trkpt>
      <trkpt lat="42.85564" lon="0.20805">
        <ele>2277</ele>
        <time>2021-10-29T16:13:44Z</time>
      </trkpt>
      <trkpt lat="42.85548" lon="0.20824">
        <ele>2273</ele>
        <time>2021-10-29T16:14:01Z</time>
      </trkpt>
      <trkpt lat="42.85535" lon="0.2083">
        <ele>2271</ele>
        <time>2021-10-29T16:14:12Z</time>
      </trkpt>
      <trkpt lat="42.85532" lon="0.2084">
        <ele>2270</ele>
        <time>2021-10-29T16:14:19Z</time>
      </trkpt>
      <trkpt lat="42.85521" lon="0.20847">
        <ele>2268</ele>
        <time>2021-10-29T16:14:29Z</time>
      </trkpt>
      <trkpt lat="42.85516" lon="0.20857">
        <ele>2266</ele>
        <time>2021-10-29T16:14:36Z</time>
      </trkpt>
      <trkpt lat="42.85503" lon="0.20858">
        <ele>2265</ele>
        <time>2021-10-29T16:14:46Z</time>
      </trkpt>
      <trkpt lat="42.85468" lon="0.20876">
        <ele>2254</ele>
        <time>2021-10-29T16:15:16Z</time>
      </trkpt>
      <trkpt lat="42.85453" lon="0.20887">
        <ele>2249</ele>
        <time>2021-10-29T16:15:30Z</time>
      </trkpt>
      <trkpt lat="42.85452" lon="0.20894">
        <ele>2249</ele>
        <time>2021-10-29T16:15:34Z</time>
      </trkpt>
      <trkpt lat="42.85453" lon="0.20911">
        <ele>2248</ele>
        <time>2021-10-29T16:15:44Z</time>
      </trkpt>
      <trkpt lat="42.85449" lon="0.20926">
        <ele>2249</ele>
        <time>2021-10-29T16:15:53Z</time>
      </trkpt>
      <trkpt lat="42.8544" lon="0.20928">
        <ele>2247</ele>
        <time>2021-10-29T16:16:00Z</time>
      </trkpt>
      <trkpt lat="42.854" lon="0.20906">
        <ele>2239</ele>
        <time>2021-10-29T16:16:35Z</time>
      </trkpt>
      <trkpt lat="42.85372" lon="0.20876">
        <ele>2234</ele>
        <time>2021-10-29T16:17:04Z</time>
      </trkpt>
      <trkpt lat="42.8536" lon="0.20871">
        <ele>2232</ele>
        <time>2021-10-29T16:17:14Z</time>
      </trkpt>
      <trkpt lat="42.85331" lon="0.20873">
        <ele>2228</ele>
        <time>2021-10-29T16:17:37Z</time>
      </trkpt>
      <trkpt lat="42.85311" lon="0.2087">
        <ele>2226</ele>
        <time>2021-10-29T16:17:53Z</time>
      </trkpt>
      <trkpt lat="42.85319" lon="0.20883">
        <ele>2228</ele>
        <time>2021-10-29T16:18:03Z</time>
      </trkpt>
      <trkpt lat="42.85329" lon="0.20896">
        <ele>2230</ele>
        <time>2021-10-29T16:18:14Z</time>
      </trkpt>
      <trkpt lat="42.85337" lon="0.20901">
        <ele>2232</ele>
        <time>2021-10-29T16:18:21Z</time>
      </trkpt>
      <trkpt lat="42.85347" lon="0.20911">
        <ele>2234</ele>
        <time>2021-10-29T16:18:31Z</time>
      </trkpt>
    </trkseg>
  </trk>
</gpx>